createdAt,value
2023-01-19T00:01:35.205Z,28.92
2023-01-19T00:04:04.570Z,31.48
2023-01-19T00:06:32.528Z,28.33
2023-01-19T00:09:00.443Z,29.90
2023-01-19T00:11:28.138Z,27.45
2023-01-19T00:13:56.248Z,30.35
2023-01-19T00:16:24.214Z,29.33
2023-01-19T00:18:52.845Z,26.15
2023-01-19T00:21:22.631Z,28.55
2023-01-19T00:23:52.508Z,25.15
2023-01-19T00:26:22.080Z,26.45
2023-01-19T00:28:50.763Z,26.50
2023-01-19T00:31:20.511Z,29.35
2023-01-19T00:33:49.242Z,28.73
2023-01-19T00:36:17.281Z,22.40
2023-01-19T00:38:46.314Z,28.23
2023-01-19T00:41:13.996Z,34.85
2023-01-19T00:43:40.671Z,27.60
2023-01-19T00:46:08.441Z,30.60
2023-01-19T00:48:36.285Z,32.05
2023-01-19T00:51:04.032Z,29.85
2023-01-19T00:53:32.519Z,27.75
2023-01-19T00:56:01.714Z,29.60
2023-01-19T00:58:29.357Z,26.38
2023-01-19T01:01:03.335Z,27.95
2023-01-19T01:03:31.221Z,31.88
2023-01-19T01:05:58.971Z,29.55
2023-01-19T01:08:26.621Z,32.45
2023-01-19T01:10:54.301Z,29.98
2023-01-19T01:13:26.390Z,36.20
2023-01-19T01:15:57.052Z,26.98
2023-01-19T01:18:25.758Z,27.90
2023-01-19T01:20:56.139Z,29.70
2023-01-19T01:23:24.085Z,24.00
2023-01-19T01:25:51.754Z,24.00
2023-01-19T01:28:19.487Z,28.67
2023-01-19T01:30:48.686Z,30.60
2023-01-19T01:33:16.319Z,26.38
2023-01-19T01:36:04.160Z,26.73
2023-01-19T01:38:31.884Z,23.10
2023-01-19T01:40:59.522Z,28.52
2023-01-19T01:43:43.797Z,22.42
2023-01-19T01:46:15.269Z,21.13
2023-01-19T01:48:45.936Z,24.17
2023-01-19T01:51:27.858Z,25.08
2023-01-19T01:54:04.467Z,30.67
2023-01-19T01:56:36.731Z,21.10
2023-01-19T01:59:07.901Z,21.17
2023-01-19T02:01:55.163Z,25.23
2023-01-19T02:04:24.041Z,25.42
2023-01-19T02:07:09.558Z,25.08
2023-01-19T02:09:55.599Z,23.58
2023-01-19T02:12:41.609Z,24.05
2023-01-19T02:15:16.861Z,25.45
2023-01-19T02:17:46.174Z,22.42
2023-01-19T02:20:14.713Z,23.77
2023-01-19T02:22:48.708Z,25.65
2023-01-19T02:25:19.277Z,25.40
2023-01-19T02:27:47.475Z,23.70
2023-01-19T02:30:16.540Z,25.13
2023-01-19T02:32:44.847Z,26.48
2023-01-19T02:35:14.489Z,19.30
2023-01-19T02:37:44.864Z,24.55
2023-01-19T02:42:45.407Z,25.23
2023-01-19T02:45:15.966Z,23.63
2023-01-19T02:47:46.295Z,23.58
2023-01-19T02:53:12.925Z,25.33
2023-01-19T02:55:43.259Z,25.90
2023-01-19T03:00:52.150Z,25.08
2023-01-19T03:03:31.715Z,24.80
2023-01-19T03:06:06.597Z,14.93
2023-01-19T03:08:44.709Z,25.23
2023-01-19T03:11:13.859Z,20.23
2023-01-19T03:13:48.329Z,24.80
2023-01-19T03:16:22.521Z,23.50
2023-01-19T03:18:55.681Z,21.60
2023-01-19T03:21:27.657Z,25.38
2023-01-19T03:23:58.064Z,25.35
2023-01-19T03:26:29.832Z,27.00
2023-01-19T03:29:03.478Z,25.50
2023-01-19T03:31:34.157Z,26.42
2023-01-19T03:34:07.367Z,23.38
2023-01-19T03:36:38.219Z,26.08
2023-01-19T03:39:08.875Z,25.15
2023-01-19T03:41:38.456Z,22.45
2023-01-19T03:44:08.394Z,24.02
2023-01-19T03:46:36.164Z,21.77
2023-01-19T03:49:03.948Z,27.00
2023-01-19T03:51:31.814Z,25.80
2023-01-19T03:54:01.281Z,22.90
2023-01-19T03:56:28.965Z,25.73
2023-01-19T03:58:57.109Z,27.58
2023-01-19T04:01:26.570Z,27.00
2023-01-19T04:03:55.024Z,22.77
2023-01-19T04:06:22.792Z,27.20
2023-01-19T04:08:51.546Z,23.92
2023-01-19T04:11:19.567Z,20.73
2023-01-19T04:13:47.256Z,25.35
2023-01-19T04:16:19.836Z,20.33
2023-01-19T04:18:49.296Z,19.90
2023-01-19T04:21:17.439Z,22.88
2023-01-19T04:23:45.970Z,24.50
2023-01-19T04:26:14.200Z,22.35
2023-01-19T04:28:41.897Z,27.90
2023-01-19T04:31:09.763Z,23.35
2023-01-19T04:33:37.610Z,24.42
2023-01-19T04:36:07.381Z,22.73
2023-01-19T04:38:35.339Z,26.33
2023-01-19T04:41:03.064Z,23.65
2023-01-19T04:43:30.757Z,20.25
2023-01-19T04:45:58.760Z,22.60
2023-01-19T04:48:26.356Z,23.15
2023-01-19T04:50:53.999Z,21.98
2023-01-19T04:53:23.043Z,20.85
2023-01-19T04:55:54.741Z,21.98
2023-01-19T04:58:22.540Z,20.50
2023-01-19T05:00:52.095Z,21.80
2023-01-19T05:03:20.339Z,22.40
2023-01-19T05:05:48.112Z,23.48
2023-01-19T05:08:15.874Z,23.98
2023-01-19T05:10:45.005Z,21.67
2023-01-19T05:13:14.182Z,23.85
2023-01-19T05:15:41.844Z,20.88
2023-01-19T05:18:09.789Z,26.45
2023-01-19T05:20:37.429Z,20.02
2023-01-19T05:23:05.118Z,22.30
2023-01-19T05:25:32.739Z,27.42
2023-01-19T05:28:02.849Z,25.33
2023-01-19T05:30:30.780Z,20.50
2023-01-19T05:32:58.888Z,23.42
2023-01-19T05:35:35.575Z,22.15
2023-01-19T05:38:03.823Z,20.52
2023-01-19T05:40:31.434Z,20.73
2023-01-19T05:43:00.998Z,22.63
2023-01-19T05:45:30.522Z,20.73
2023-01-19T05:47:58.294Z,22.73
2023-01-19T05:50:26.120Z,21.55
2023-01-19T05:52:54.092Z,26.25
2023-01-19T05:55:22.687Z,21.83
2023-01-19T05:57:50.406Z,25.15
2023-01-19T06:00:19.146Z,23.05
2023-01-19T06:02:49.332Z,27.45
2023-01-19T06:05:17.210Z,26.80
2023-01-19T06:07:44.966Z,23.50
2023-01-19T06:10:13.303Z,23.90
2023-01-19T06:12:41.418Z,23.13
2023-01-19T06:15:09.810Z,22.25
2023-01-19T06:17:37.795Z,24.40
2023-01-19T06:20:07.934Z,26.73
2023-01-19T06:22:35.564Z,23.38
2023-01-19T06:25:03.311Z,25.83
2023-01-19T06:27:31.112Z,26.48
2023-01-19T06:29:58.758Z,23.67
2023-01-19T06:32:26.460Z,23.10
2023-01-19T06:34:54.259Z,23.33
2023-01-19T06:37:26.773Z,22.30
2023-01-19T06:39:54.463Z,23.20
2023-01-19T06:42:22.071Z,22.75
2023-01-19T06:44:49.724Z,24.23
2023-01-19T06:47:17.718Z,22.40
2023-01-19T06:49:45.411Z,24.23
2023-01-19T06:52:15.804Z,22.50
2023-01-19T06:54:45.267Z,24.63
2023-01-19T06:57:13.890Z,27.60
2023-01-19T06:59:41.813Z,24.50
2023-01-19T07:02:26.208Z,23.17
2023-01-19T07:04:55.677Z,28.02
2023-01-19T07:07:23.426Z,28.85
2023-01-19T07:09:54.088Z,27.35
2023-01-19T07:12:22.243Z,24.38
2023-01-19T07:14:50.319Z,25.13
2023-01-19T07:17:18.360Z,23.13
2023-01-19T07:19:46.577Z,23.60
2023-01-19T07:22:14.243Z,23.90
2023-01-19T07:24:41.938Z,26.90
2023-01-19T07:27:12.332Z,24.15
2023-01-19T07:29:40.061Z,21.70
2023-01-19T07:32:07.899Z,24.73
2023-01-19T07:34:36.419Z,25.13
2023-01-19T07:37:04.727Z,22.80
2023-01-19T07:39:32.498Z,20.75
2023-01-19T07:42:00.326Z,21.50
2023-01-19T07:44:29.372Z,21.48
2023-01-19T07:46:57.046Z,27.00
2023-01-19T07:49:25.526Z,23.48
2023-01-19T07:51:53.200Z,25.23
2023-01-19T07:54:21.275Z,21.15
2023-01-19T07:56:48.997Z,20.42
2023-01-19T07:59:16.695Z,25.08
2023-01-19T08:01:45.821Z,27.75
2023-01-19T08:04:13.633Z,19.35
2023-01-19T08:06:41.825Z,26.20
2023-01-19T08:09:09.972Z,25.83
2023-01-19T08:11:37.726Z,22.20
2023-01-19T08:14:07.879Z,21.85
2023-01-19T08:19:05.016Z,24.83
2023-01-19T08:21:33.286Z,25.87
2023-01-19T08:24:01.089Z,24.38
2023-01-19T08:26:31.870Z,20.48
2023-01-19T08:29:01.641Z,21.10
2023-01-19T08:31:29.659Z,20.08
2023-01-19T08:33:57.940Z,22.15
2023-01-19T08:36:27.565Z,20.92
2023-01-19T08:38:55.277Z,15.35
2023-01-19T08:41:22.945Z,23.85
2023-01-19T08:43:51.129Z,20.10
2023-01-19T08:46:21.569Z,20.75
2023-01-19T08:48:50.281Z,22.25
2023-01-19T08:51:18.554Z,17.63
2023-01-19T08:53:47.919Z,24.73
2023-01-19T08:56:16.011Z,18.60
2023-01-19T08:58:45.672Z,17.70
2023-01-19T09:01:16.787Z,17.80
2023-01-19T09:03:45.033Z,20.55
2023-01-19T09:06:17.014Z,19.08
2023-01-19T09:08:45.018Z,16.90
2023-01-19T09:11:16.409Z,16.90
2023-01-19T09:13:44.172Z,22.98
2023-01-19T09:16:13.294Z,18.58
2023-01-19T09:18:41.348Z,19.58
2023-01-19T09:21:09.687Z,21.05
2023-01-19T09:23:37.732Z,21.17
2023-01-19T09:26:07.011Z,18.23
2023-01-19T09:28:36.098Z,16.25
2023-01-19T09:31:06.525Z,17.67
2023-01-19T09:33:34.797Z,44.30
2023-01-19T09:36:02.904Z,14.93
2023-01-19T09:38:32.919Z,15.60
2023-01-19T09:41:01.476Z,15.40
2023-01-19T09:43:40.373Z,17.17
2023-01-19T09:46:13.518Z,14.27
2023-01-19T09:48:46.651Z,17.58
2023-01-19T09:51:18.669Z,15.27
2023-01-19T09:54:04.082Z,19.30
2023-01-19T09:56:32.808Z,14.43
2023-01-19T09:59:02.265Z,14.45
2023-01-19T10:01:48.148Z,16.30
2023-01-19T10:04:39.766Z,12.70
2023-01-19T10:07:15.732Z,23.80
2023-01-19T10:10:06.235Z,13.95
2023-01-19T10:16:35.914Z,15.70
2023-01-19T10:19:18.996Z,17.60
2023-01-19T10:21:48.604Z,16.65
2023-01-19T10:24:20.984Z,16.33
2023-01-19T10:26:52.483Z,14.07
2023-01-19T10:29:25.227Z,12.65
2023-01-19T10:32:04.529Z,14.88
2023-01-19T10:34:32.230Z,12.75
2023-01-19T10:37:06.157Z,17.10
2023-01-19T10:39:37.397Z,11.80
2023-01-19T10:42:07.556Z,15.13
2023-01-19T10:44:37.295Z,14.50
2023-01-19T10:47:12.640Z,12.10
2023-01-19T10:49:43.521Z,12.30
2023-01-19T10:52:22.613Z,13.20
2023-01-19T10:54:50.383Z,15.68
2023-01-19T10:57:29.401Z,16.20
2023-01-19T10:59:57.498Z,16.17
2023-01-19T11:02:28.296Z,14.20
2023-01-19T11:04:58.695Z,11.80
2023-01-19T11:07:30.368Z,16.70
2023-01-19T11:10:21.958Z,18.33
2023-01-19T11:12:58.243Z,13.15
2023-01-19T11:15:30.130Z,12.93
2023-01-19T11:17:59.932Z,17.50
2023-01-19T11:20:31.553Z,15.07
2023-01-19T11:23:06.206Z,14.23
2023-01-19T11:25:36.513Z,17.15
2023-01-19T11:28:04.939Z,14.85
2023-01-19T11:30:36.700Z,12.38
2023-01-19T11:33:07.429Z,49.83
2023-01-19T11:35:38.790Z,15.82
2023-01-19T11:38:08.749Z,17.70
2023-01-19T11:40:36.826Z,15.40
2023-01-19T11:43:04.465Z,15.68
2023-01-19T11:45:33.914Z,13.77
2023-01-19T11:48:07.058Z,14.80
2023-01-19T11:50:42.015Z,15.35
2023-01-19T11:53:17.320Z,14.55
2023-01-19T11:55:50.088Z,13.95
2023-01-19T11:58:19.490Z,16.63
2023-01-19T12:00:52.120Z,15.30
2023-01-19T12:03:25.495Z,13.50
2023-01-19T12:06:00.102Z,13.85
2023-01-19T12:08:32.263Z,15.18
2023-01-19T12:11:03.483Z,15.35
2023-01-19T12:13:33.340Z,14.60
2023-01-19T12:16:05.664Z,11.98
2023-01-19T12:18:38.575Z,16.15
2023-01-19T12:21:07.710Z,17.08
2023-01-19T12:23:51.627Z,15.55
2023-01-19T12:26:29.297Z,18.92
2023-01-19T12:29:01.052Z,17.30
2023-01-19T12:31:29.185Z,13.27
2023-01-19T12:33:57.046Z,16.75
2023-01-19T12:36:39.322Z,17.58
2023-01-19T12:39:17.859Z,18.98
2023-01-19T12:41:45.873Z,16.52
2023-01-19T12:44:27.592Z,16.58
2023-01-19T12:46:57.520Z,17.15
2023-01-19T12:49:28.857Z,16.00
2023-01-19T12:52:18.015Z,14.90
2023-01-19T12:54:54.222Z,16.98
2023-01-19T12:57:26.187Z,14.43
2023-01-19T12:59:58.625Z,16.30
2023-01-19T13:02:48.292Z,17.80
2023-01-19T13:05:48.889Z,19.33
2023-01-19T13:11:19.597Z,18.02
2023-01-19T13:16:56.881Z,16.05
2023-01-19T13:19:35.874Z,16.48
2023-01-19T13:23:04.528Z,16.42
2023-01-19T13:25:36.492Z,14.95
2023-01-19T13:28:10.421Z,15.75
2023-01-19T13:30:45.860Z,17.60
2023-01-19T13:33:20.152Z,15.65
2023-01-19T13:35:53.861Z,17.42
2023-01-19T13:38:24.054Z,22.08
2023-01-19T13:40:54.832Z,15.13
2023-01-19T13:43:29.341Z,15.30
2023-01-19T13:45:57.362Z,15.27
2023-01-19T13:48:25.970Z,15.80
2023-01-19T13:51:02.738Z,17.50
2023-01-19T13:53:30.883Z,16.27
2023-01-19T13:56:17.955Z,17.20
2023-01-19T13:58:58.590Z,16.45
2023-01-19T14:01:29.413Z,18.02
2023-01-19T14:03:57.884Z,14.23
2023-01-19T14:06:34.139Z,14.68
2023-01-19T14:09:19.915Z,17.52
2023-01-19T14:12:05.938Z,14.40
2023-01-19T14:14:33.957Z,16.63
2023-01-19T14:17:01.884Z,18.13
2023-01-19T14:19:29.613Z,14.18
2023-01-19T14:22:02.126Z,13.80
2023-01-19T14:24:33.150Z,20.30
2023-01-19T14:27:21.325Z,16.88
2023-01-19T14:29:50.561Z,16.63
2023-01-19T14:32:20.384Z,19.13
2023-01-19T14:34:50.162Z,18.65
2023-01-19T14:37:21.767Z,16.65
2023-01-19T14:39:51.590Z,17.10
2023-01-19T14:42:27.943Z,17.88
2023-01-19T14:45:00.581Z,19.85
2023-01-19T14:47:47.058Z,17.60
2023-01-19T14:50:25.719Z,17.42
2023-01-19T14:52:57.288Z,19.77
2023-01-19T14:55:32.987Z,19.38
2023-01-19T14:58:02.230Z,18.83
2023-01-19T15:00:30.316Z,18.65
2023-01-19T15:02:58.006Z,18.38
2023-01-19T15:05:25.780Z,20.08
2023-01-19T15:07:53.517Z,19.65
2023-01-19T15:10:23.502Z,16.20
2023-01-19T15:12:55.463Z,19.48
2023-01-19T15:15:30.260Z,18.30
2023-01-19T15:17:58.574Z,19.55
2023-01-19T15:20:26.271Z,25.33
2023-01-19T15:22:53.940Z,21.23
2023-01-19T15:25:25.976Z,19.88
2023-01-19T15:27:54.376Z,22.55
2023-01-19T15:30:27.672Z,19.73
2023-01-19T15:32:55.321Z,22.38
2023-01-19T15:35:24.455Z,23.25
2023-01-19T15:37:52.122Z,22.73
2023-01-19T15:40:22.653Z,20.38
2023-01-19T15:42:51.025Z,19.83
2023-01-19T15:45:32.727Z,18.35
2023-01-19T15:48:01.149Z,18.88
2023-01-19T15:50:28.866Z,23.58
2023-01-19T15:52:56.625Z,18.30
2023-01-19T15:55:24.568Z,22.90
2023-01-19T15:57:52.193Z,19.05
2023-01-19T16:00:20.374Z,20.33
2023-01-19T16:02:51.972Z,21.70
2023-01-19T16:05:19.702Z,23.08
2023-01-19T16:07:47.537Z,25.63
2023-01-19T16:10:16.786Z,18.77
2023-01-19T16:12:44.969Z,21.42
2023-01-19T16:15:13.421Z,24.02
2023-01-19T16:17:41.319Z,19.58
2023-01-19T16:20:14.650Z,24.63
2023-01-19T16:22:42.592Z,21.52
2023-01-19T16:25:10.913Z,24.35
2023-01-19T16:27:38.722Z,26.55
2023-01-19T16:30:07.847Z,23.45
2023-01-19T16:32:36.388Z,24.30
2023-01-19T16:35:04.152Z,24.35
2023-01-19T16:37:33.301Z,22.23
2023-01-19T16:40:01.023Z,24.42
2023-01-19T16:42:28.841Z,23.60
2023-01-19T16:44:56.487Z,20.77
2023-01-19T16:47:24.247Z,22.85
2023-01-19T16:49:51.950Z,22.80
2023-01-19T16:52:19.777Z,24.65
2023-01-19T16:54:49.142Z,21.95
2023-01-19T16:57:16.829Z,26.45
2023-01-19T16:59:45.100Z,21.77
2023-01-19T17:02:12.941Z,26.60
2023-01-19T17:04:40.712Z,27.85
2023-01-19T17:07:08.352Z,26.42
2023-01-19T17:09:36.020Z,21.50
2023-01-19T17:12:07.355Z,22.60
2023-01-19T17:14:36.635Z,24.50
2023-01-19T17:17:04.959Z,23.00
2023-01-19T17:19:32.704Z,24.45
2023-01-19T17:22:00.364Z,23.50
2023-01-19T17:24:28.055Z,19.73
2023-01-19T17:26:55.671Z,21.35
2023-01-19T17:29:24.667Z,25.02
2023-01-19T17:31:52.488Z,22.90
2023-01-19T17:34:20.132Z,23.65
2023-01-19T17:36:47.786Z,28.60
2023-01-19T17:39:16.792Z,36.05
2023-01-19T17:41:44.439Z,22.45
2023-01-19T17:44:12.174Z,29.40
2023-01-19T17:46:41.222Z,25.15
2023-01-19T17:49:09.069Z,27.05
2023-01-19T17:51:37.374Z,28.33
2023-01-19T17:54:05.390Z,28.05
2023-01-19T17:56:36.833Z,29.33
2023-01-19T17:59:07.542Z,28.15
2023-01-19T18:01:38.195Z,25.50
2023-01-19T18:04:09.209Z,28.75
2023-01-19T18:06:37.118Z,25.15
2023-01-19T18:09:06.794Z,21.92
2023-01-19T18:11:35.080Z,22.25
2023-01-19T18:14:02.823Z,24.02
2023-01-19T18:16:32.417Z,25.52
2023-01-19T18:19:00.127Z,26.05
2023-01-19T18:21:30.342Z,24.35
2023-01-19T18:24:03.065Z,24.35
2023-01-19T18:26:31.705Z,26.45
2023-01-19T18:28:59.850Z,24.48
2023-01-19T18:31:28.559Z,25.67
2023-01-19T18:33:56.335Z,25.88
2023-01-19T18:36:24.233Z,29.00
2023-01-19T18:38:53.571Z,25.60
2023-01-19T18:41:22.403Z,27.00
2023-01-19T18:43:51.913Z,27.10
2023-01-19T18:46:21.061Z,27.00
2023-01-19T18:48:48.737Z,27.33
2023-01-19T18:51:17.643Z,33.03
2023-01-19T18:53:46.555Z,26.13
2023-01-19T18:56:16.574Z,27.73
2023-01-19T18:58:45.386Z,26.15
2023-01-19T19:01:21.767Z,26.75
2023-01-19T19:03:49.908Z,26.58
2023-01-19T19:06:20.495Z,24.92
2023-01-19T19:08:49.721Z,30.20
2023-01-19T19:11:19.283Z,27.55
2023-01-19T19:13:47.141Z,28.83
2023-01-19T19:16:15.629Z,25.73
2023-01-19T19:18:43.650Z,26.27
2023-01-19T19:21:14.517Z,23.60
2023-01-19T19:23:42.259Z,24.70
2023-01-19T19:26:12.146Z,26.85
2023-01-19T19:28:41.711Z,24.90
2023-01-19T19:31:11.583Z,29.40
2023-01-19T19:33:40.361Z,25.10
2023-01-19T19:36:09.371Z,24.90
2023-01-19T19:38:37.628Z,25.75
2023-01-19T19:41:08.498Z,27.35
2023-01-19T19:43:37.118Z,24.83
2023-01-19T19:46:07.973Z,26.58
2023-01-19T19:48:38.884Z,23.25
2023-01-19T19:51:17.471Z,23.67
2023-01-19T19:53:46.083Z,22.30
2023-01-19T19:56:14.716Z,26.08
2023-01-19T19:58:43.497Z,27.92
2023-01-19T20:01:14.311Z,27.73
2023-01-19T20:03:42.559Z,28.38
2023-01-19T20:06:11.849Z,24.17
2023-01-19T20:08:39.611Z,31.30
2023-01-19T20:11:09.336Z,23.08
2023-01-19T20:13:38.427Z,25.33
2023-01-19T20:16:10.043Z,22.60
2023-01-19T20:18:40.735Z,23.00
2023-01-19T20:21:12.845Z,22.90
2023-01-19T20:23:40.688Z,26.10
2023-01-19T20:26:10.878Z,22.25
2023-01-19T20:28:39.268Z,23.70
2023-01-19T20:31:13.272Z,20.85
2023-01-19T20:33:42.452Z,21.25
2023-01-19T20:36:10.804Z,21.33
2023-01-19T20:38:39.046Z,24.05
2023-01-19T20:41:08.031Z,22.20
2023-01-19T20:43:36.120Z,20.00
2023-01-19T20:46:04.376Z,21.35
2023-01-19T20:48:32.748Z,21.98
2023-01-19T20:51:02.945Z,19.38
2023-01-19T20:53:31.731Z,23.75
2023-01-19T20:55:59.427Z,20.05
2023-01-19T20:58:27.100Z,21.88
2023-01-19T21:00:54.871Z,24.73
2023-01-19T21:03:22.552Z,20.25
2023-01-19T21:05:50.445Z,20.90
2023-01-19T21:08:19.633Z,20.70
2023-01-19T21:10:47.331Z,22.33
2023-01-19T21:13:14.975Z,20.77
2023-01-19T21:15:42.659Z,18.98
2023-01-19T21:18:10.272Z,19.75
2023-01-19T21:20:37.924Z,19.92
2023-01-19T21:23:05.739Z,18.77
2023-01-19T21:25:34.754Z,21.73
2023-01-19T21:28:02.399Z,21.33
2023-01-19T21:30:30.551Z,24.20
2023-01-19T21:32:58.216Z,20.27
2023-01-19T21:35:25.900Z,21.17
2023-01-19T21:37:53.531Z,20.05
2023-01-19T21:40:21.369Z,21.95
2023-01-19T21:42:50.440Z,25.02
2023-01-19T21:45:18.133Z,22.20
2023-01-19T21:47:45.768Z,19.25
2023-01-19T21:50:13.510Z,20.70
2023-01-19T21:52:41.220Z,22.08
2023-01-19T21:55:09.513Z,23.17
2023-01-19T21:57:37.159Z,19.17
2023-01-19T22:00:10.188Z,22.10
2023-01-19T22:02:39.134Z,23.08
2023-01-19T22:05:07.747Z,21.55
2023-01-19T22:07:35.412Z,22.92
2023-01-19T22:10:03.111Z,21.40
2023-01-19T22:12:30.784Z,19.63
2023-01-19T22:14:58.425Z,22.33
2023-01-19T22:17:27.453Z,21.92
2023-01-19T22:19:55.087Z,22.85
2023-01-19T22:22:22.795Z,18.85
2023-01-19T22:24:51.008Z,20.38
2023-01-19T22:27:18.772Z,20.52
2023-01-19T22:29:47.738Z,18.50
2023-01-19T22:32:15.383Z,22.83
2023-01-19T22:34:44.406Z,20.83
2023-01-19T22:37:12.078Z,22.35
2023-01-19T22:39:39.743Z,20.75
2023-01-19T22:42:07.400Z,21.38
2023-01-19T22:44:35.076Z,21.23
2023-01-19T22:47:02.751Z,19.90
2023-01-19T22:49:30.713Z,21.75
2023-01-19T22:51:59.763Z,18.27
2023-01-19T22:54:29.815Z,18.90
2023-01-19T22:56:57.483Z,19.77
2023-01-19T22:59:25.170Z,19.77
2023-01-19T23:01:53.063Z,19.67
2023-01-19T23:04:21.039Z,18.15
2023-01-19T23:06:50.445Z,19.00
2023-01-19T23:09:19.996Z,19.52
2023-01-19T23:11:50.559Z,19.77
2023-01-19T23:14:20.723Z,19.23
2023-01-19T23:16:48.769Z,19.85
2023-01-19T23:19:17.319Z,18.85
2023-01-19T23:21:45.746Z,17.65
2023-01-19T23:24:13.553Z,20.48
2023-01-19T23:26:42.678Z,19.88
2023-01-19T23:29:13.241Z,19.65
2023-01-19T23:31:44.187Z,19.83
2023-01-19T23:34:13.454Z,19.30
2023-01-19T23:36:42.599Z,23.88
2023-01-19T23:39:14.869Z,19.13
2023-01-19T23:41:43.904Z,19.98
2023-01-19T23:44:11.566Z,19.98
2023-01-19T23:46:39.509Z,17.95
2023-01-19T23:49:07.400Z,21.80
2023-01-19T23:51:35.808Z,19.98
2023-01-19T23:54:03.987Z,20.98
2023-01-19T23:56:33.828Z,23.45
2023-01-19T23:59:06.882Z,20.25
